Terminal Aerodrome Forecast
Issued by NWS

Home | Current Version | Previous Version | Text Only | Print | Product List | Glossary On
Versions: 1 2 3 4 5 6 7 8 9 10 11 12 13
432
FTUS46 KHNX 281121
TAFVIS
TAF
KVIS 281121Z 2812/2912 VRB03KT P6SM SCT200
     FM282100 31008KT P6SM SCT200
     FM290400 VRB03KT P6SM SCT200=

USA.gov is the U.S. government's official web portal to all federal, state and local government web resources and services.